ΕΜΥ, Εθνική Μετεωρολογική Υπηρεσία - Δελτία Καιρού, Προγνώσεις

ΑΕΡΟΝΑΥΤΙΛΙΑ

GREEK AIRPORTS CODES

LGAV 212220Z 34007KT 310V020 9999 FEW030 SCT070 18/11 Q1021 RMK NOSIG=

EUROPEAN AIRPORTS CODES

LFPO 212230Z 21004KT 180V250 9999 BKN016 BKN230 15/12 Q1010NOSIG=